Time;durP1;ratioP1;P1;durP2;ratioP2;P2;SDS_P1;SDS_P2;PMS_P1;PMS_P2;Temp;Humidity;BMP_temperature;BMP_pressure;BME280_temperature;BME280_humidity;BME280_pressure;Samples;Min_cycle;Max_cycle;Signal;HPM_P1;HPM_P2
2023/03/18 00:01:13;;;;;;;;;;;;;;;27.36;37.45;93886.41;5029985;28;9000;-56
2023/03/18 00:03:39;;;;;;;;;;;;;;;27.36;37.45;93885.69;5046615;28;7028;-56
2023/03/18 00:06:15;;;;;;;;;;;;;;;27.36;37.05;93891.91;5036283;28;8493;-55
2023/03/18 00:08:46;;;;;;;;;;;;;;;27.35;37.22;93893.22;5060478;28;7101;-55
2023/03/18 00:11:15;;;;;;;;;;;;;;;27.35;37.12;93895.19;5037533;28;9401;-56
2023/03/18 00:13:43;;;;;;;;;;;;;;;27.34;37.30;93891.69;5052420;28;7140;-55
2023/03/18 00:16:10;;;;;;;;;;;;;;;27.33;37.31;93890.22;5031868;28;8450;-55
2023/03/18 00:18:38;;;;;;;;;;;;;;;27.30;37.73;93885.00;5043313;28;7210;-55
2023/03/18 00:21:09;;;;;;;;;;;;;;;27.31;37.37;93892.78;5036245;28;7113;-56
2023/03/18 00:23:35;;;;;;;;;;;;;;;27.33;37.15;93898.50;5047718;28;7002;-56
2023/03/18 00:26:02;;;;;;;;;;;;;;;27.30;37.55;93891.28;5038342;28;9383;-55
2023/03/18 00:28:30;;;;;;;;;;;;;;;27.34;37.07;93904.78;5055247;28;7038;-55
2023/03/18 00:31:07;;;;;;;;;;;;;;;27.34;37.38;93902.00;5049102;28;7362;-56
2023/03/18 00:33:44;;;;;;;;;;;;;;;27.32;36.77;93910.81;5037993;28;7246;-56
2023/03/18 00:36:12;;;;;;;;;;;;;;;27.33;37.57;93922.59;5048498;28;7635;-55
2023/03/18 00:38:40;;;;;;;;;;;;;;;27.34;37.39;93915.81;5046033;28;9082;-55
2023/03/18 00:41:14;;;;;;;;;;;;;;;27.29;37.49;93911.91;5046317;28;9473;-55
2023/03/18 00:43:51;;;;;;;;;;;;;;;27.29;37.62;93911.16;5033542;28;7032;-55
2023/03/18 00:46:28;;;;;;;;;;;;;;;27.32;37.06;93910.81;5053979;28;7206;-55
2023/03/18 00:48:59;;;;;;;;;;;;;;;27.32;37.28;93916.34;5056125;28;9528;-56
2023/03/18 00:51:40;;;;;;;;;;;;;;;27.30;37.42;93918.88;5040061;28;8914;-55
2023/03/18 00:54:12;;;;;;;;;;;;;;;27.29;37.53;93917.41;5038879;28;7380;-56
2023/03/18 00:56:40;;;;;;;;;;;;;;;27.28;37.35;93909.66;5048307;28;8919;-55
2023/03/18 00:59:07;;;;;;;;;;;;;;;27.32;36.96;93921.09;5048006;28;9116;-55
2023/03/18 01:01:35;;;;;;;;;;;;;;;27.32;37.00;93921.09;5032976;28;8257;-56
2023/03/18 01:04:03;;;;;;;;;;;;;;;27.35;36.99;93915.31;5052097;28;8350;-55
2023/03/18 01:06:58;;;;;;;;;;;;;;;27.35;37.00;93907.03;5042436;28;7319;-55
2023/03/18 01:09:29;;;;;;;;;;;;;;;27.37;36.90;93910.00;5009390;28;7276;-55
2023/03/18 01:12:09;;;;;;;;;;;;;;;27.37;37.08;93912.75;5011159;28;9116;-55
2023/03/18 01:14:46;;;;;;;;;;;;;;;27.37;37.08;93907.22;5020117;28;7528;-55
2023/03/18 01:17:32;;;;;;;;;;;;;;;27.37;36.92;93909.25;5013917;28;7247;-56
2023/03/18 01:20:10;;;;;;;;;;;;;;;27.38;36.92;93907.97;5018029;28;7956;-55
2023/03/18 01:22:40;;;;;;;;;;;;;;;27.37;37.07;93907.22;5011165;28;8789;-56
2023/03/18 01:25:21;;;;;;;;;;;;;;;27.38;37.52;93903.16;5024723;28;9676;-55
2023/03/18 01:27:57;;;;;;;;;;;;;;;27.35;37.12;93904.25;4994513;28;7416;-55
2023/03/18 01:30:23;;;;;;;;;;;;;;;27.35;36.62;93898.75;4996784;28;6951;-55
2023/03/18 01:32:52;;;;;;;;;;;;;;;27.36;37.20;93902.25;5014972;28;9140;-55
2023/03/18 01:35:36;;;;;;;;;;;;;;;27.35;37.07;93895.97;4995838;28;9006;-55
2023/03/18 01:38:11;;;;;;;;;;;;;;;27.37;36.84;93900.94;5024239;28;8621;-55
2023/03/18 01:40:44;;;;;;;;;;;;;;;27.34;36.97;93902.72;4994816;28;8272;-55
2023/03/18 01:43:29;;;;;;;;;;;;;;;27.32;37.39;93894.25;5005913;28;6978;-56
2023/03/18 01:46:47;;;;;;;;;;;;;;;27.33;37.17;93895.00;5011885;28;7112;-56
2023/03/18 01:49:38;;;;;;;;;;;;;;;27.33;36.87;93898.50;5050283;28;8950;-55
2023/03/18 01:52:15;;;;;;;;;;;;;;;27.31;37.47;93895.53;5047474;28;7260;-55
2023/03/18 01:54:51;;;;;;;;;;;;;;;27.33;37.05;93889.47;5034723;28;7108;-55
2023/03/18 01:57:32;;;;;;;;;;;;;;;27.32;36.83;93885.22;5048425;28;8365;-55
2023/03/18 02:00:04;;;;;;;;;;;;;;;27.34;36.93;93886.16;5032381;28;7037;-56
2023/03/18 02:02:32;;;;;;;;;;;;;;;27.33;37.34;93887.44;5031286;28;7068;-56
2023/03/18 02:05:11;;;;;;;;;;;;;;;27.31;36.93;93892.78;5058041;28;9709;-55
2023/03/18 02:07:45;;;;;;;;;;;;;;;27.33;37.06;93892.97;5043084;28;8290;-55
2023/03/18 02:10:17;;;;;;;;;;;;;;;27.33;36.83;93887.44;5043297;28;7020;-55
2023/03/18 02:12:50;;;;;;;;;;;;;;;27.32;36.61;93888.72;5051312;28;8825;-56
2023/03/18 02:15:27;;;;;;;;;;;;;;;27.31;36.96;93883.75;5067525;28;7192;-56
2023/03/18 02:18:16;;;;;;;;;;;;;;;27.32;36.88;93880.44;5042573;28;9672;-55
2023/03/18 02:21:20;;;;;;;;;;;;;;;27.32;36.93;93877.66;5040449;28;7255;-55
2023/03/18 02:24:08;;;;;;;;;;;;;;;27.30;36.80;93874.69;5013965;28;7249;-56
2023/03/18 02:27:03;;;;;;;;;;;;;;;27.32;37.15;93876.91;5049494;28;7050;-55
2023/03/18 02:29:35;;;;;;;;;;;;;;;27.29;36.85;93878.75;5047937;28;7399;-55
2023/03/18 02:32:07;;;;;;;;;;;;;;;27.27;37.21;93875.78;5035535;28;8923;-55
2023/03/18 02:35:28;;;;;;;;;;;;;;;27.30;36.67;93876.72;5037052;28;9465;-55
2023/03/18 02:38:03;;;;;;;;;;;;;;;27.29;36.92;93876.00;5009127;28;9241;-56
2023/03/18 02:40:48;;;;;;;;;;;;;;;27.30;36.88;93879.47;5003827;28;9053;-55
2023/03/18 02:43:32;;;;;;;;;;;;;;;27.29;36.65;93873.25;4996378;28;7662;-55
2023/03/18 02:46:17;;;;;;;;;;;;;;;27.29;37.20;93878.75;4987494;28;8940;-55
2023/03/18 02:48:46;;;;;;;;;;;;;;;27.28;37.04;93882.03;4996065;28;9063;-55
2023/03/18 02:51:19;;;;;;;;;;;;;;;27.28;36.89;93876.50;4986664;28;6871;-55
2023/03/18 02:54:23;;;;;;;;;;;;;;;27.28;36.93;93874.50;4996478;28;7480;-56
2023/03/18 02:56:50;;;;;;;;;;;;;;;27.28;36.70;93877.25;4930292;28;7046;-55
2023/03/18 02:59:26;;;;;;;;;;;;;;;27.23;36.83;93871.88;4946489;28;7316;-56
2023/03/18 03:02:07;;;;;;;;;;;;;;;27.22;36.77;93870.38;4953550;28;7104;-55
2023/03/18 03:04:50;;;;;;;;;;;;;;;27.22;36.76;93879.41;4938488;28;8975;-55
2023/03/18 03:07:17;;;;;;;;;;;;;;;27.21;36.88;93877.91;4947541;28;9475;-55
2023/03/18 03:09:44;;;;;;;;;;;;;;;27.20;37.15;93870.91;4950994;28;7088;-55
2023/03/18 03:12:11;;;;;;;;;;;;;;;27.16;36.94;93873.25;4974505;28;8992;-55
2023/03/18 03:14:40;;;;;;;;;;;;;;;27.17;37.22;93882.25;4962967;28;9097;-56
2023/03/18 03:17:06;;;;;;;;;;;;;;;27.16;37.00;93883.56;4958963;28;7396;-55
2023/03/18 03:19:38;;;;;;;;;;;;;;;27.15;36.81;93880.03;4985669;28;7603;-56
2023/03/18 03:22:06;;;;;;;;;;;;;;;27.16;36.99;93881.53;4985615;28;9020;-55
2023/03/18 03:24:32;;;;;;;;;;;;;;;27.16;36.94;93876.03;4973741;28;9122;-56
2023/03/18 03:27:01;;;;;;;;;;;;;;;27.16;37.08;93887.06;4973028;28;7184;-55
2023/03/18 03:29:28;;;;;;;;;;;;;;;27.16;36.88;93883.56;4980170;28;7015;-56
2023/03/18 03:31:54;;;;;;;;;;;;;;;27.11;36.82;93879.63;5001100;28;7127;-56
2023/03/18 03:34:23;;;;;;;;;;;;;;;27.14;36.75;93886.09;5042707;28;7121;-55
2023/03/18 03:37:07;;;;;;;;;;;;;;;27.13;37.29;93882.59;5058009;28;7259;-55
2023/03/18 03:39:43;;;;;;;;;;;;;;;27.14;36.94;93889.63;5052710;28;7210;-55
2023/03/18 03:42:12;;;;;;;;;;;;;;;27.12;37.25;93892.13;5051490;28;8650;-56
2023/03/18 03:44:48;;;;;;;;;;;;;;;27.09;36.69;93887.69;5040577;28;8725;-55
2023/03/18 03:47:14;;;;;;;;;;;;;;;27.11;37.27;93887.91;5050395;28;7207;-55
2023/03/18 03:49:41;;;;;;;;;;;;;;;27.10;36.48;93889.19;5041100;28;7160;-55
2023/03/18 03:52:09;;;;;;;;;;;;;;;27.08;36.70;93885.47;5030565;28;7043;-56
2023/03/18 03:54:36;;;;;;;;;;;;;;;27.08;37.19;93875.16;5041955;28;7075;-55
2023/03/18 03:57:05;;;;;;;;;;;;;;;27.09;36.85;93893.22;5048761;28;8954;-55
2023/03/18 03:59:32;;;;;;;;;;;;;;;27.11;36.67;93898.94;5035599;28;7027;-56
2023/03/18 04:01:58;;;;;;;;;;;;;;;27.10;36.34;93894.69;5041618;28;9045;-56
2023/03/18 04:04:26;;;;;;;;;;;;;;;27.11;36.98;93896.19;5060393;28;7180;-55
2023/03/18 04:07:04;;;;;;;;;;;;;;;27.11;36.94;93898.94;5041980;28;8317;-55
2023/03/18 04:09:41;;;;;;;;;;;;;;;27.11;37.27;93906.50;5040740;28;7186;-55
2023/03/18 04:12:46;;;;;;;;;;;;;;;27.09;36.42;93906.28;5051634;28;7258;-56
2023/03/18 04:15:18;;;;;;;;;;;;;;;27.07;36.94;93901.28;5002754;28;9050;-55
2023/03/18 04:17:50;;;;;;;;;;;;;;;27.05;36.59;93895.56;5015933;28;7186;-56
2023/03/18 04:20:17;;;;;;;;;;;;;;;27.08;37.14;93902.75;5025085;28;9081;-55
2023/03/18 04:22:46;;;;;;;;;;;;;;;27.10;36.72;93897.47;5023324;28;7113;-55
2023/03/18 04:25:16;;;;;;;;;;;;;;;27.08;36.50;93891.72;5002039;28;7052;-56
2023/03/18 04:27:43;;;;;;;;;;;;;;;27.09;36.98;93898.75;5018391;28;9233;-55
2023/03/18 04:30:19;;;;;;;;;;;;;;;27.10;36.57;93900.22;5000446;28;9014;-56
2023/03/18 04:32:50;;;;;;;;;;;;;;;27.11;36.51;93906.50;5012887;28;8804;-55
2023/03/18 04:35:36;;;;;;;;;;;;;;;27.09;36.89;93904.25;5011468;28;8998;-56
2023/03/18 04:38:05;;;;;;;;;;;;;;;27.07;36.67;93901.28;5013296;28;8151;-56
2023/03/18 04:40:31;;;;;;;;;;;;;;;27.09;36.93;93903.50;5004965;28;7283;-56
2023/03/18 04:42:59;;;;;;;;;;;;;;;27.10;36.61;93902.25;5029998;28;7591;-55
2023/03/18 04:45:28;;;;;;;;;;;;;;;27.10;36.32;93908.50;5002716;28;10441;-56
2023/03/18 04:48:10;;;;;;;;;;;;;;;27.09;36.50;93898.75;5014318;28;7216;-56
2023/03/18 04:50:45;;;;;;;;;;;;;;;27.09;36.31;93903.50;5040907;28;8639;-55
2023/03/18 04:53:16;;;;;;;;;;;;;;;27.07;36.53;93893.00;5042080;28;9066;-55
2023/03/18 04:55:42;;;;;;;;;;;;;;;27.07;36.56;93897.78;5033093;28;7266;-55
2023/03/18 04:58:11;;;;;;;;;;;;;;;27.01;36.58;93895.16;5039343;28;9061;-55
2023/03/18 05:00:37;;;;;;;;;;;;;;;27.07;36.66;93895.03;5045929;28;7023;-55
2023/03/18 05:03:08;;;;;;;;;;;;;;;27.06;37.17;93899.78;5054100;28;7212;-55
2023/03/18 05:05:37;;;;;;;;;;;;;;;27.07;36.52;93908.81;5062863;28;9708;-55
2023/03/18 05:08:03;;;;;;;;;;;;;;;27.05;36.72;93903.84;5046701;28;7222;-56
2023/03/18 05:10:39;;;;;;;;;;;;;;;27.04;36.44;93893.31;5039884;28;7039;-55
2023/03/18 05:13:36;;;;;;;;;;;;;;;27.06;36.71;93891.50;5032874;28;7047;-56
2023/03/18 05:16:03;;;;;;;;;;;;;;;27.06;36.66;93894.28;4995475;28;7208;-56
2023/03/18 05:18:52;;;;;;;;;;;;;;;27.04;36.70;93888.56;5013425;28;8718;-55
2023/03/18 05:21:27;;;;;;;;;;;;;;;27.04;36.71;93896.09;5011101;28;7305;-56
2023/03/18 05:23:53;;;;;;;;;;;;;;;27.05;36.38;93897.56;5014231;28;7199;-55
2023/03/18 05:26:20;;;;;;;;;;;;;;;27.06;36.43;93894.28;5015255;28;7028;-56
2023/03/18 05:29:04;;;;;;;;;;;;;;;27.05;36.36;93892.06;4992396;28;7313;-55
2023/03/18 05:31:31;;;;;;;;;;;;;;;27.05;36.40;93895.56;4971231;28;7142;-56
2023/03/18 05:33:59;;;;;;;;;;;;;;;27.06;36.53;93899.03;4978202;28;9480;-56
2023/03/18 05:36:28;;;;;;;;;;;;;;;27.05;36.35;93895.56;4971857;28;8830;-56
2023/03/18 05:39:11;;;;;;;;;;;;;;;27.06;36.84;93896.28;4984957;28;7235;-55
2023/03/18 05:41:47;;;;;;;;;;;;;;;27.03;37.17;93891.84;4973739;28;9033;-55
2023/03/18 05:44:24;;;;;;;;;;;;;;;27.02;36.40;93893.84;4982103;28;7641;-55
2023/03/18 05:47:00;;;;;;;;;;;;;;;27.04;36.55;93894.06;4978247;28;7275;-56
2023/03/18 05:49:26;;;;;;;;;;;;;;;27.03;36.87;93889.84;4995473;28;8819;-55
2023/03/18 05:52:31;;;;;;;;;;;;;;;27.02;36.23;93893.84;4988755;28;9135;-55
2023/03/18 05:55:12;;;;;;;;;;;;;;;27.02;36.58;93893.84;4978245;28;8786;-55
2023/03/18 05:57:39;;;;;;;;;;;;;;;26.99;36.74;93894.91;4994460;28;8983;-55
2023/03/18 06:00:20;;;;;;;;;;;;;;;27.00;36.70;93898.41;5001308;28;7874;-55
2023/03/18 06:03:00;;;;;;;;;;;;;;;26.95;36.42;93891.72;5017284;28;8795;-55
2023/03/18 06:05:57;;;;;;;;;;;;;;;26.96;35.93;93896.00;5025249;28;9127;-55
2023/03/18 06:08:33;;;;;;;;;;;;;;;26.95;35.86;93888.97;4982885;28;8721;-56
2023/03/18 06:11:31;;;;;;;;;;;;;;;26.92;36.34;93887.28;4973303;28;8687;-55
2023/03/18 06:13:57;;;;;;;;;;;;;;;26.91;36.43;93888.56;4978172;28;8950;-55
2023/03/18 06:16:28;;;;;;;;;;;;;;;26.93;36.41;93897.03;4974973;28;8718;-55
2023/03/18 06:19:03;;;;;;;;;;;;;;;26.90;36.04;93884.31;4967642;28;9019;-56
2023/03/18 06:21:37;;;;;;;;;;;;;;;26.90;36.46;93895.38;4977043;28;7137;-56
2023/03/18 06:24:14;;;;;;;;;;;;;;;26.90;36.28;93898.84;4975132;28;7278;-55
2023/03/18 06:26:40;;;;;;;;;;;;;;;26.90;36.12;93892.59;4958210;28;8214;-55
2023/03/18 06:29:30;;;;;;;;;;;;;;;26.88;36.14;93895.88;4969759;28;7302;-55
2023/03/18 06:32:06;;;;;;;;;;;;;;;26.87;36.30;93893.66;4984350;28;8740;-56
2023/03/18 06:34:34;;;;;;;;;;;;;;;26.88;36.19;93895.16;4996748;28;8763;-55
2023/03/18 06:37:09;;;;;;;;;;;;;;;26.88;36.38;93898.63;4985013;28;9473;-55
2023/03/18 06:39:53;;;;;;;;;;;;;;;26.89;36.99;93905.66;4989643;28;8944;-56
2023/03/18 06:42:35;;;;;;;;;;;;;;;26.88;36.86;93895.16;4990489;28;9778;-55
2023/03/18 06:45:14;;;;;;;;;;;;;;;26.90;37.02;93903.66;5025905;28;9211;-55
2023/03/18 06:47:48;;;;;;;;;;;;;;;26.90;37.01;93896.09;5061017;28;7491;-55
2023/03/18 06:50:23;;;;;;;;;;;;;;;26.94;37.21;93903.31;5052530;28;9056;-55
2023/03/18 06:52:49;;;;;;;;;;;;;;;26.93;36.70;93899.81;5063956;28;7560;-55
2023/03/18 06:55:26;;;;;;;;;;;;;;;26.92;36.32;93903.84;5056497;28;9371;-55
2023/03/18 06:58:06;;;;;;;;;;;;;;;26.90;36.63;93898.13;5050675;28;7035;-56
2023/03/18 07:00:44;;;;;;;;;;;;;;;26.90;36.18;93895.38;5047498;28;7051;-56
2023/03/18 07:03:10;;;;;;;;;;;;;;;26.92;36.75;93908.63;5048748;28;7133;-56
2023/03/18 07:05:38;;;;;;;;;;;;;;;26.90;36.99;93901.59;5045792;28;7243;-56
2023/03/18 07:08:15;;;;;;;;;;;;;;;26.91;36.64;93907.88;5047397;28;7296;-55
2023/03/18 07:10:47;;;;;;;;;;;;;;;26.92;37.08;93906.63;5064538;28;9481;-55
2023/03/18 07:13:18;;;;;;;;;;;;;;;26.93;36.57;93910.84;5051179;28;7294;-55
2023/03/18 07:15:45;;;;;;;;;;;;;;;26.91;36.59;93910.63;5063717;28;7151;-55
2023/03/18 07:18:22;;;;;;;;;;;;;;;26.93;36.82;93908.09;5047386;28;7125;-56
2023/03/18 07:20:49;;;;;;;;;;;;;;;26.92;36.57;93903.84;5060447;28;9660;-55
2023/03/18 07:23:15;;;;;;;;;;;;;;;26.94;36.61;93904.06;5053901;28;7365;-56
2023/03/18 07:25:43;;;;;;;;;;;;;;;26.95;36.72;93911.06;5053073;28;7865;-56
2023/03/18 07:28:19;;;;;;;;;;;;;;;26.94;37.01;93909.59;5043540;28;9220;-55
2023/03/18 07:30:57;;;;;;;;;;;;;;;26.95;36.37;93911.06;5034552;28;9222;-56
2023/03/18 07:33:25;;;;;;;;;;;;;;;26.96;36.59;93912.56;5035357;28;7036;-56
2023/03/18 07:35:51;;;;;;;;;;;;;;;26.97;37.13;93922.31;5049741;28;7003;-56
2023/03/18 07:38:18;;;;;;;;;;;;;;;26.95;36.59;93913.09;5040506;28;8820;-55
2023/03/18 07:40:45;;;;;;;;;;;;;;;26.92;36.62;93912.84;5049466;28;7267;-56
2023/03/18 07:43:12;;;;;;;;;;;;;;;26.92;36.61;93914.91;5047026;28;9216;-56
2023/03/18 07:45:40;;;;;;;;;;;;;;;26.94;37.00;93915.09;5055535;28;9401;-56
2023/03/18 07:48:06;;;;;;;;;;;;;;;26.94;36.84;93922.63;5046882;28;7128;-55
2023/03/18 07:50:32;;;;;;;;;;;;;;;26.96;36.98;93933.88;5047700;28;8787;-56
2023/03/18 07:53:01;;;;;;;;;;;;;;;26.95;36.95;93918.63;5048976;28;9034;-55
2023/03/18 07:55:40;;;;;;;;;;;;;;;26.95;36.62;93915.84;5049682;28;9162;-56
2023/03/18 07:58:09;;;;;;;;;;;;;;;26.98;36.71;93921.03;5059437;28;9416;-56
2023/03/18 08:00:36;;;;;;;;;;;;;;;26.97;36.68;93922.31;5061216;28;8993;-56
2023/03/18 08:03:06;;;;;;;;;;;;;;;26.97;36.77;93921.59;5051884;28;9005;-56
2023/03/18 08:05:32;;;;;;;;;;;;;;;26.99;36.87;93919.03;5047889;28;7375;-56
2023/03/18 08:07:58;;;;;;;;;;;;;;;27.01;36.92;93920.00;5060439;28;9539;-55
2023/03/18 08:10:24;;;;;;;;;;;;;;;27.01;37.18;93924.75;5046297;28;9015;-56
2023/03/18 08:12:56;;;;;;;;;;;;;;;27.02;36.83;93913.19;5062966;28;9477;-55
2023/03/18 08:15:24;;;;;;;;;;;;;;;27.04;37.20;93924.44;5048108;28;8981;-56
2023/03/18 08:17:52;;;;;;;;;;;;;;;27.04;36.85;93924.44;5044707;28;7373;-55
2023/03/18 08:20:20;;;;;;;;;;;;;;;27.05;36.86;93925.94;5037144;28;7111;-55
2023/03/18 08:22:49;;;;;;;;;;;;;;;27.07;37.27;93922.63;5043217;28;9457;-56
2023/03/18 08:25:15;;;;;;;;;;;;;;;27.08;36.65;93924.84;5046623;28;8435;-55
2023/03/18 08:27:53;;;;;;;;;;;;;;;27.07;36.19;93928.91;5056324;28;7290;-55
2023/03/18 08:30:33;;;;;;;;;;;;;;;27.04;35.70;93916.16;5042421;28;8635;-56
2023/03/18 08:33:01;;;;;;;;;;;;;;;27.08;35.76;93919.34;5047806;28;8755;-56
2023/03/18 08:35:52;;;;;;;;;;;;;;;27.07;35.68;93923.38;5043014;28;7111;-56
2023/03/18 08:38:22;;;;;;;;;;;;;;;27.05;35.96;93912.13;5046604;28;9420;-56
2023/03/18 08:40:51;;;;;;;;;;;;;;;27.04;36.00;93918.91;5051738;28;9409;-56
2023/03/18 08:43:20;;;;;;;;;;;;;;;27.04;35.70;93915.41;5058692;28;7188;-55
2023/03/18 08:45:57;;;;;;;;;;;;;;;27.06;35.84;93916.34;5061544;28;9070;-56
2023/03/18 08:48:24;;;;;;;;;;;;;;;27.05;37.02;93920.41;5054828;28;7017;-56
2023/03/18 08:50:54;;;;;;;;;;;;;;;27.08;36.15;93924.84;5050605;28;7280;-56
2023/03/18 08:53:27;;;;;;;;;;;;;;;27.08;36.13;93924.13;5049523;28;8710;-56
2023/03/18 08:55:53;;;;;;;;;;;;;;;27.07;36.36;93926.13;5031833;28;9074;-56
2023/03/18 08:58:26;;;;;;;;;;;;;;;27.05;36.19;93917.66;5063278;28;8963;-56
2023/03/18 09:01:02;;;;;;;;;;;;;;;27.08;36.72;93919.34;5059278;28;9052;-56
2023/03/18 09:03:31;;;;;;;;;;;;;;;27.08;36.37;93913.09;5049680;28;9195;-56
2023/03/18 09:05:59;;;;;;;;;;;;;;;27.09;37.04;93914.56;5034302;28;8769;-55
2023/03/18 09:08:33;;;;;;;;;;;;;;;27.09;36.18;93909.03;5052647;28;9062;-56
2023/03/18 09:11:09;;;;;;;;;;;;;;;27.10;36.41;93905.00;5031318;28;8941;-56
2023/03/18 09:13:37;;;;;;;;;;;;;;;27.10;36.63;93914.03;5034881;28;9401;-56
2023/03/18 09:16:04;;;;;;;;;;;;;;;27.11;36.84;93903.72;5044572;28;9457;-56
2023/03/18 09:18:36;;;;;;;;;;;;;;;27.12;36.94;93913.50;5056005;28;9376;-56
2023/03/18 09:21:03;;;;;;;;;;;;;;;27.14;36.11;93902.66;5042557;28;8772;-56
2023/03/18 09:23:33;;;;;;;;;;;;;;;27.11;36.18;93903.72;5050751;28;8881;-56
2023/03/18 09:26:01;;;;;;;;;;;;;;;27.13;35.66;93899.16;5054562;28;7050;-56
2023/03/18 09:28:30;;;;;;;;;;;;;;;27.12;36.08;93897.66;5059962;28;7271;-56
2023/03/18 09:31:02;;;;;;;;;;;;;;;27.13;36.57;93893.63;5056896;28;7925;-56
2023/03/18 09:33:40;;;;;;;;;;;;;;;27.15;36.04;93896.59;5046223;28;9108;-56
2023/03/18 09:36:09;;;;;;;;;;;;;;;27.16;36.12;93902.88;5055381;28;8963;-56
2023/03/18 09:38:42;;;;;;;;;;;;;;;27.16;36.18;93900.13;5047601;28;9125;-56
2023/03/18 09:41:09;;;;;;;;;;;;;;;27.16;36.09;93898.09;5034855;28;7026;-55
2023/03/18 09:43:45;;;;;;;;;;;;;;;27.15;36.18;93896.59;5046017;28;9070;-56
2023/03/18 09:46:31;;;;;;;;;;;;;;;27.11;36.45;93887.91;5062078;28;7038;-56
2023/03/18 09:49:08;;;;;;;;;;;;;;;27.17;36.17;93894.06;5048657;28;9061;-56
2023/03/18 09:51:57;;;;;;;;;;;;;;;27.16;35.72;93889.06;5046855;28;8913;-56
2023/03/18 09:54:39;;;;;;;;;;;;;;;27.16;35.69;93892.59;5047194;28;9272;-56
2023/03/18 09:57:18;;;;;;;;;;;;;;;27.15;35.75;93890.34;5047464;28;7380;-56
2023/03/18 10:00:04;;;;;;;;;;;;;;;27.14;36.00;93894.38;5046578;28;9134;-56
2023/03/18 10:03:18;;;;;;;;;;;;;;;27.14;36.24;93886.84;5041361;28;9081;-56
2023/03/18 10:06:15;;;;;;;;;;;;;;;27.15;36.29;93893.84;4990854;28;9063;-56
2023/03/18 10:09:04;;;;;;;;;;;;;;;27.17;36.11;93888.53;4988402;28;7021;-56
2023/03/18 10:11:44;;;;;;;;;;;;;;;27.18;36.15;93894.81;4994923;28;8783;-56
2023/03/18 10:14:26;;;;;;;;;;;;;;;27.18;36.18;93894.81;4991053;28;9062;-56
2023/03/18 10:17:26;;;;;;;;;;;;;;;27.18;36.26;93883.75;4986283;28;7028;-56
2023/03/18 10:20:14;;;;;;;;;;;;;;;27.16;36.30;93887.06;4988038;28;8943;-56
2023/03/18 10:22:58;;;;;;;;;;;;;;;27.18;36.61;93881.75;4993853;28;9140;-56
2023/03/18 10:25:26;;;;;;;;;;;;;;;27.18;36.30;93884.50;4990994;28;7012;-56
2023/03/18 10:28:11;;;;;;;;;;;;;;;27.16;36.54;93889.81;4997972;28;7037;-56
2023/03/18 10:31:00;;;;;;;;;;;;;;;27.19;36.04;93891.50;4988521;28;9055;-56
2023/03/18 10:33:45;;;;;;;;;;;;;;;27.20;35.90;93884.72;4989022;28;8716;-56
2023/03/18 10:36:39;;;;;;;;;;;;;;;27.22;35.34;93879.41;5006450;28;7217;-56
2023/03/18 10:39:25;;;;;;;;;;;;;;;27.20;34.90;93873.66;5066478;28;8746;-56
2023/03/18 10:41:54;;;;;;;;;;;;;;;27.22;34.36;93881.41;5049882;28;6986;-56
2023/03/18 10:44:25;;;;;;;;;;;;;;;27.19;34.14;93872.19;5039595;28;7431;-56
2023/03/18 10:47:20;;;;;;;;;;;;;;;27.21;33.37;93877.91;5054519;28;7022;-56
2023/03/18 10:50:09;;;;;;;;;;;;;;;27.22;33.51;93876.63;5043657;28;7028;-56
2023/03/18 10:52:55;;;;;;;;;;;;;;;27.23;33.88;93867.06;5059707;28;7245;-56
2023/03/18 10:55:30;;;;;;;;;;;;;;;27.24;33.72;93867.81;5047719;28;7100;-56
2023/03/18 10:58:22;;;;;;;;;;;;;;;27.25;33.90;93861.03;5048239;28;7520;-56
2023/03/18 11:00:57;;;;;;;;;;;;;;;27.26;33.93;93865.25;5019193;28;7122;-56
2023/03/18 11:03:30;;;;;;;;;;;;;;;27.25;33.66;93870.03;5021376;28;7706;-56
2023/03/18 11:06:03;;;;;;;;;;;;;;;27.27;33.79;93869.53;5020032;28;9033;-56
2023/03/18 11:08:38;;;;;;;;;;;;;;;27.29;34.15;93866.97;5013486;28;7379;-56
2023/03/18 11:11:28;;;;;;;;;;;;;;;27.30;33.88;93869.19;5028806;28;9395;-56
2023/03/18 11:13:56;;;;;;;;;;;;;;;27.32;33.59;93857.59;5028702;28;7160;-56
2023/03/18 11:17:06;;;;;;;;;;;;;;;27.33;33.60;93856.31;5019302;28;9214;-56
2023/03/18 11:20:12;;;;;;;;;;;;;;;27.35;33.76;93853.78;5019343;28;7300;-56
2023/03/18 11:22:47;;;;;;;;;;;;;;;27.32;33.70;93838.25;5005507;28;9346;-56
2023/03/18 11:25:25;;;;;;;;;;;;;;;27.33;33.50;93843.28;5037012;28;9035;-56
2023/03/18 11:28:02;;;;;;;;;;;;;;;27.37;33.49;93840.19;5019908;28;7258;-56
2023/03/18 11:30:42;;;;;;;;;;;;;;;27.37;33.80;93837.44;5012757;28;7080;-56
2023/03/18 11:33:11;;;;;;;;;;;;;;;27.38;33.36;93831.38;5000735;28;7248;-56
2023/03/18 11:35:59;;;;;;;;;;;;;;;27.37;33.22;93818.09;5003550;28;7049;-56
2023/03/18 11:38:32;;;;;;;;;;;;;;;27.34;33.05;93814.34;5047834;28;7051;-56
2023/03/18 11:41:13;;;;;;;;;;;;;;;27.35;33.28;93815.88;5045354;28;8873;-56
2023/03/18 11:44:00;;;;;;;;;;;;;;;27.37;33.54;93813.31;5042393;28;7239;-56
2023/03/18 11:46:39;;;;;;;;;;;;;;;27.39;33.55;93810.78;5046951;28;7522;-56
2023/03/18 11:49:24;;;;;;;;;;;;;;;27.39;33.28;93810.03;5043114;28;8938;-56
2023/03/18 11:52:11;;;;;;;;;;;;;;;27.40;33.85;93803.97;5047543;28;7292;-56
2023/03/18 11:54:43;;;;;;;;;;;;;;;27.46;34.40;93803.84;5038477;28;7320;-56
2023/03/18 11:57:51;;;;;;;;;;;;;;;27.47;34.23;93795.00;5059596;28;7910;-56
2023/03/18 12:00:42;;;;;;;;;;;;;;;27.49;33.48;93795.22;5013981;28;7287;-56
2023/03/18 12:03:15;;;;;;;;;;;;;;;27.51;34.05;93803.69;5013444;28;7218;-56
2023/03/18 12:06:27;;;;;;;;;;;;;;;27.53;33.92;93801.13;4995520;28;9495;-55
2023/03/18 12:09:10;;;;;;;;;;;;;;;27.53;33.75;93801.13;5003710;28;8776;-56
2023/03/18 12:11:54;;;;;;;;;;;;;;;27.55;34.16;93800.63;5027961;28;8503;-56
2023/03/18 12:14:37;;;;;;;;;;;;;;;27.57;33.85;93792.53;5009084;28;9332;-56
2023/03/18 12:17:29;;;;;;;;;;;;;;;27.59;34.05;93795.50;5001505;28;9023;-56
2023/03/18 12:20:32;;;;;;;;;;;;;;;27.60;34.44;93789.44;5004791;28;9372;-56
2023/03/18 12:23:00;;;;;;;;;;;;;;;27.62;33.76;93795.16;4996993;28;7027;-56
2023/03/18 12:25:36;;;;;;;;;;;;;;;27.62;33.85;93789.63;5013763;28;7263;-56
2023/03/18 12:28:43;;;;;;;;;;;;;;;27.63;34.16;93790.38;5016367;28;9061;-56
2023/03/18 12:31:39;;;;;;;;;;;;;;;27.63;33.87;93779.31;5011539;28;9468;-56
2023/03/18 12:34:37;;;;;;;;;;;;;;;27.69;33.98;93781.97;5005075;28;8773;-56
2023/03/18 12:37:33;;;;;;;;;;;;;;;27.68;34.27;93774.94;5034299;28;8898;-56
2023/03/18 12:40:27;;;;;;;;;;;;;;;27.71;34.03;93779.41;5037779;28;7302;-56
2023/03/18 12:43:00;;;;;;;;;;;;;;;27.71;34.04;93784.94;5042506;28;7384;-56
2023/03/18 12:45:41;;;;;;;;;;;;;;;27.71;34.21;93784.94;5046694;28;7825;-56
2023/03/18 12:48:31;;;;;;;;;;;;;;;27.71;33.82;93779.41;5044288;28;8157;-56
2023/03/18 12:51:24;;;;;;;;;;;;;;;27.70;33.70;93786.94;5060218;28;9378;-56
2023/03/18 12:54:06;;;;;;;;;;;;;;;27.71;34.18;93791.19;5047441;28;9346;-56
2023/03/18 12:56:44;;;;;;;;;;;;;;;27.72;33.74;93786.41;5054481;28;9498;-56
2023/03/18 12:59:42;;;;;;;;;;;;;;;27.70;33.17;93783.44;5045021;28;7087;-55
2023/03/18 13:03:04;;;;;;;;;;;;;;;27.73;33.77;93783.09;4994684;28;9172;-55
2023/03/18 13:05:41;;;;;;;;;;;;;;;27.72;33.88;93767.81;4934032;29;9059;-56
2023/03/18 13:09:14;;;;;;;;;;;;;;;27.83;33.97;93772.31;4951622;28;9705;-56
2023/03/18 13:11:57;;;;;;;;;;;;;;;27.85;34.29;93766.97;4795194;29;7449;-56
2023/03/18 13:14:51;;;;;;;;;;;;;;;27.88;34.07;93766.66;4784831;29;6868;-56
2023/03/18 13:17:30;;;;;;;;;;;;;;;27.91;34.40;93764.81;4787273;29;7335;-56
2023/03/18 13:20:11;;;;;;;;;;;;;;;27.93;34.28;93763.00;4795419;29;9103;-56
2023/03/18 13:23:14;;;;;;;;;;;;;;;27.94;34.16;93767.25;4803742;29;7021;-56
2023/03/18 13:26:02;;;;;;;;;;;;;;;27.98;34.22;93772.47;4800417;29;7062;-56
2023/03/18 13:29:15;;;;;;;;;;;;;;;28.01;34.14;93774.91;4801176;29;7271;-55
2023/03/18 13:32:13;;;;;;;;;;;;;;;28.02;34.21;93770.09;4714319;30;8562;-55
2023/03/18 13:35:09;;;;;;;;;;;;;;;28.04;34.17;93773.06;4677249;30;7895;-56
2023/03/18 13:38:10;;;;;;;;;;;;;;;28.04;34.09;93767.53;4682392;30;8583;-56
2023/03/18 13:44:23;;;;;;;;;;;;;;;28.06;34.36;93764.97;4783085;29;7011;-56
2023/03/18 13:47:07;;;;;;;;;;;;;;;28.05;34.92;93757.97;4711303;29;7333;-56
2023/03/18 13:49:45;;;;;;;;;;;;;;;28.05;34.65;93750.41;4773833;30;7049;-56
2023/03/18 13:52:44;;;;;;;;;;;;;;;28.06;34.69;93748.38;4781922;29;9070;-56
2023/03/18 13:55:38;;;;;;;;;;;;;;;28.10;35.23;93746.03;4782315;29;9318;-56